createdAt,value
2018-12-01T00:00:17.312Z,27.80
2018-12-01T00:02:45.713Z,27.27
2018-12-01T00:05:14.113Z,28.87
2018-12-01T00:07:42.576Z,25.80
2018-12-01T00:10:10.980Z,26.10
2018-12-01T00:12:39.348Z,25.10
2018-12-01T00:15:09.872Z,27.63
2018-12-01T00:17:38.244Z,23.67
2018-12-01T00:20:09.696Z,25.00
2018-12-01T00:22:38.076Z,26.63
2018-12-01T00:25:07.704Z,25.70
2018-12-01T00:27:36.164Z,29.07
2018-12-01T00:30:13.408Z,27.97
2018-12-01T00:32:42.239Z,27.10
2018-12-01T00:35:11.573Z,27.90
2018-12-01T00:37:40.066Z,28.83
2018-12-01T00:40:18.681Z,26.53
2018-12-01T00:42:47.075Z,28.60
2018-12-01T00:45:16.467Z,28.10
2018-12-01T00:47:45.848Z,25.60
2018-12-01T00:50:16.209Z,29.43
2018-12-01T00:52:44.829Z,29.90
2018-12-01T00:55:14.051Z,26.57
2018-12-01T00:57:42.444Z,29.50
2018-12-01T01:00:14.202Z,28.90
2018-12-01T01:02:42.692Z,23.70
2018-12-01T01:05:11.141Z,27.47
2018-12-01T01:07:39.536Z,26.30
2018-12-01T01:10:09.850Z,27.37
2018-12-01T01:12:38.253Z,29.90
2018-12-01T01:15:07.839Z,30.07
2018-12-01T01:17:36.644Z,25.80
2018-12-01T01:20:09.021Z,28.70
2018-12-01T01:22:37.509Z,30.77
2018-12-01T01:25:06.688Z,30.30
2018-12-01T01:27:35.080Z,28.00
2018-12-01T01:30:05.192Z,30.53
2018-12-01T01:32:33.696Z,29.10
2018-12-01T01:35:02.555Z,26.57
2018-12-01T01:37:30.960Z,23.97
2018-12-01T01:39:59.412Z,27.50
2018-12-01T01:42:27.816Z,26.97
2018-12-01T01:44:56.285Z,27.30
2018-12-01T01:47:24.677Z,27.50
2018-12-01T01:49:53.041Z,29.10
2018-12-01T01:52:21.440Z,27.67
2018-12-01T01:54:49.809Z,28.40
2018-12-01T01:57:18.192Z,28.47
2018-12-01T01:59:46.548Z,27.70
2018-12-01T02:02:14.960Z,31.40
2018-12-01T02:04:43.331Z,29.10
2018-12-01T02:07:11.712Z,28.40
2018-12-01T02:09:40.072Z,27.40
2018-12-01T02:12:08.481Z,30.47
2018-12-01T02:14:36.848Z,27.73
2018-12-01T02:17:05.340Z,28.60
2018-12-01T02:19:33.793Z,28.47
2018-12-01T02:22:02.196Z,28.30
2018-12-01T02:24:30.565Z,28.77
2018-12-01T02:26:58.963Z,28.87
2018-12-01T02:29:27.417Z,28.83
2018-12-01T02:31:55.968Z,27.53
2018-12-01T02:34:24.360Z,28.40
2018-12-01T02:36:52.789Z,28.93
2018-12-01T02:39:21.253Z,27.23
2018-12-01T02:41:49.639Z,27.07
2018-12-01T02:44:29.149Z,28.80
2018-12-01T02:47:10.046Z,26.80
2018-12-01T02:49:38.530Z,26.90
2018-12-01T02:52:07.500Z,27.63
2018-12-01T02:54:35.900Z,25.37
2018-12-01T02:57:04.309Z,27.53
2018-12-01T02:59:32.756Z,28.40
2018-12-01T03:02:01.157Z,27.47
2018-12-01T03:04:29.624Z,27.00
2018-12-01T03:06:58.001Z,29.93
2018-12-01T03:09:26.396Z,29.23
2018-12-01T03:11:54.869Z,28.27
2018-12-01T03:14:23.272Z,31.13
2018-12-01T03:16:51.796Z,28.23
2018-12-01T03:19:20.237Z,27.27
2018-12-01T03:21:48.692Z,29.73
2018-12-01T03:24:17.103Z,26.83
2018-12-01T03:26:45.484Z,28.53
2018-12-01T03:29:13.875Z,26.90
2018-12-01T03:31:42.270Z,28.20
2018-12-01T03:34:10.721Z,26.67
2018-12-01T03:36:39.176Z,28.83
2018-12-01T03:39:09.476Z,26.67
2018-12-01T03:41:38.223Z,27.70
2018-12-01T03:44:06.697Z,27.60
2018-12-01T03:46:35.153Z,27.50
2018-12-01T03:49:03.553Z,25.10
2018-12-01T03:51:32.041Z,24.97
2018-12-01T03:54:00.521Z,28.80
2018-12-01T03:56:28.976Z,25.80
2018-12-01T03:58:57.380Z,27.07
2018-12-01T04:01:25.841Z,28.37
2018-12-01T04:03:54.254Z,24.33
2018-12-01T04:06:22.634Z,25.70
2018-12-01T04:08:51.024Z,28.13
2018-12-01T04:11:19.397Z,29.10
2018-12-01T04:13:47.861Z,28.40
2018-12-01T04:16:16.322Z,27.77
2018-12-01T04:18:44.733Z,29.20
2018-12-01T04:21:13.108Z,26.80
2018-12-01T04:23:41.588Z,22.67
2018-12-01T04:26:10.045Z,26.07
2018-12-01T04:28:38.440Z,26.80
2018-12-01T04:31:06.841Z,26.53
2018-12-01T04:33:35.237Z,28.00
2018-12-01T04:36:03.664Z,27.63
2018-12-01T04:38:32.068Z,28.40
2018-12-01T04:41:00.436Z,26.00
2018-12-01T04:43:28.945Z,28.37
2018-12-01T04:45:57.429Z,27.40
2018-12-01T04:48:25.827Z,28.80
2018-12-01T04:50:54.257Z,28.17
2018-12-01T04:53:22.658Z,28.67
2018-12-01T04:55:51.344Z,32.10
2018-12-01T04:58:19.825Z,29.67
2018-12-01T05:00:48.280Z,31.33
2018-12-01T05:03:16.701Z,28.07
2018-12-01T05:05:45.069Z,28.90
2018-12-01T05:08:13.432Z,26.07
2018-12-01T05:10:41.829Z,26.60
2018-12-01T05:13:10.211Z,30.53
2018-12-01T05:15:38.612Z,30.30
2018-12-01T05:18:07.557Z,30.87
2018-12-01T05:20:35.953Z,31.80
2018-12-01T05:23:04.432Z,31.20
2018-12-01T05:25:32.920Z,28.50
2018-12-01T05:28:01.314Z,30.23
2018-12-01T05:30:29.840Z,30.10
2018-12-01T05:32:58.249Z,32.37
2018-12-01T05:35:26.640Z,30.70
2018-12-01T05:37:56.245Z,31.17
2018-12-01T05:40:24.636Z,32.07
2018-12-01T05:42:53.089Z,31.50
2018-12-01T05:45:22.247Z,28.77
2018-12-01T05:47:51.184Z,31.53
2018-12-01T05:50:23.300Z,30.50
2018-12-01T05:52:52.648Z,32.90
2018-12-01T05:55:21.058Z,30.70
2018-12-01T05:57:49.527Z,30.87
2018-12-01T06:00:18.085Z,32.70
2018-12-01T06:02:46.483Z,31.77
2018-12-01T06:05:14.877Z,33.23
2018-12-01T06:07:43.625Z,32.00
2018-12-01T06:10:13.972Z,30.60
2018-12-01T06:12:42.461Z,33.80
2018-12-01T06:15:12.705Z,33.83
2018-12-01T06:17:41.168Z,33.50
2018-12-01T06:20:10.899Z,33.37
2018-12-01T06:22:39.354Z,32.40
2018-12-01T06:25:11.146Z,32.30
2018-12-01T06:27:39.598Z,34.10
2018-12-01T06:30:12.325Z,33.83
2018-12-01T06:32:40.776Z,34.03
2018-12-01T06:35:09.269Z,32.27
2018-12-01T06:37:37.712Z,31.80
2018-12-01T06:40:10.338Z,35.77
2018-12-01T06:42:38.783Z,34.67
2018-12-01T06:45:09.158Z,35.00
2018-12-01T06:47:37.592Z,36.13
2018-12-01T06:50:08.268Z,36.97
2018-12-01T06:52:36.708Z,36.30
2018-12-01T06:55:05.288Z,34.13
2018-12-01T06:57:33.689Z,34.20
2018-12-01T07:00:02.169Z,36.43
2018-12-01T07:02:30.580Z,35.57
2018-12-01T07:04:59.054Z,34.87
2018-12-01T07:07:27.952Z,35.20
2018-12-01T07:09:56.384Z,36.23
2018-12-01T07:12:24.795Z,38.60
2018-12-01T07:14:53.252Z,38.20
2018-12-01T07:17:21.652Z,39.10
2018-12-01T07:19:50.109Z,38.53
2018-12-01T07:22:18.509Z,37.47
2018-12-01T07:24:46.977Z,34.93
2018-12-01T07:27:15.388Z,34.07
2018-12-01T07:29:43.833Z,35.17
2018-12-01T07:32:12.337Z,35.27
2018-12-01T07:34:40.797Z,35.87
2018-12-01T07:37:09.197Z,35.90
2018-12-01T07:39:37.677Z,36.90
2018-12-01T07:42:06.236Z,36.60
2018-12-01T07:44:34.625Z,39.37
2018-12-01T07:47:03.029Z,37.07
2018-12-01T07:49:31.412Z,36.10
2018-12-01T07:51:59.896Z,37.80
2018-12-01T07:54:28.348Z,31.60
2018-12-01T07:56:56.753Z,33.57
2018-12-01T07:59:25.135Z,34.10
2018-12-01T08:01:53.816Z,33.97
2018-12-01T08:04:22.280Z,42.70
2018-12-01T08:06:51.396Z,42.70
2018-12-01T08:09:19.853Z,33.00
2018-12-01T08:11:48.252Z,32.37
2018-12-01T08:14:16.622Z,32.10
2018-12-01T08:16:45.022Z,31.17
2018-12-01T08:19:13.482Z,35.60
2018-12-01T08:21:41.881Z,31.57
2018-12-01T08:24:10.332Z,31.30
2018-12-01T08:26:38.747Z,29.97
2018-12-01T08:29:07.239Z,31.20
2018-12-01T08:31:35.697Z,32.43
2018-12-01T08:34:04.161Z,32.63
2018-12-01T08:36:32.557Z,30.77
2018-12-01T08:39:01.041Z,29.23
2018-12-01T08:41:29.505Z,32.57
2018-12-01T08:43:57.903Z,32.97
2018-12-01T08:46:26.368Z,32.87
2018-12-01T08:48:54.777Z,29.77
2018-12-01T08:51:23.233Z,32.60
2018-12-01T08:53:51.633Z,32.47
2018-12-01T08:56:20.088Z,32.17
2018-12-01T08:58:48.496Z,33.40
2018-12-01T09:01:16.878Z,28.90
2018-12-01T09:03:45.286Z,31.07
2018-12-01T09:06:13.712Z,34.47
2018-12-01T09:08:42.122Z,30.83
2018-12-01T09:11:10.577Z,34.20
2018-12-01T09:13:38.981Z,35.00
2018-12-01T09:16:07.858Z,34.30
2018-12-01T09:18:36.358Z,33.07
2018-12-01T09:21:05.241Z,37.90
2018-12-01T09:23:33.731Z,36.60
2018-12-01T09:26:02.104Z,35.00
2018-12-01T09:28:30.591Z,34.47
2018-12-01T09:30:59.047Z,34.30
2018-12-01T09:33:27.455Z,34.70
2018-12-01T09:35:57.764Z,33.43
2018-12-01T09:38:26.263Z,34.63
2018-12-01T09:40:54.720Z,32.70
2018-12-01T09:43:23.232Z,34.73
2018-12-01T09:45:51.677Z,36.00
2018-12-01T09:48:20.085Z,34.07
2018-12-01T09:50:48.540Z,33.67
2018-12-01T09:53:16.944Z,37.53
2018-12-01T09:55:45.330Z,34.37
2018-12-01T09:58:14.029Z,33.37
2018-12-01T10:00:42.404Z,35.57
2018-12-01T10:03:10.871Z,34.57
2018-12-01T10:05:39.366Z,37.10
2018-12-01T10:08:08.079Z,33.37
2018-12-01T10:10:36.580Z,32.47
2018-12-01T10:13:05.128Z,34.23
2018-12-01T10:15:35.716Z,33.07
2018-12-01T10:18:04.224Z,33.47
2018-12-01T10:20:33.796Z,33.47
2018-12-01T10:23:03.860Z,33.20
2018-12-01T10:25:32.234Z,34.40
2018-12-01T10:28:00.632Z,28.77
2018-12-01T10:30:29.065Z,34.93
2018-12-01T10:32:57.472Z,35.03
2018-12-01T10:35:26.648Z,33.20
2018-12-01T10:38:02.518Z,33.87
2018-12-01T10:40:31.016Z,31.90
2018-12-01T10:42:59.410Z,32.87
2018-12-01T10:45:27.845Z,33.63
2018-12-01T10:47:56.232Z,36.00
2018-12-01T10:50:24.929Z,31.20
2018-12-01T10:52:54.323Z,33.87
2018-12-01T10:55:28.156Z,33.83
2018-12-01T10:58:01.927Z,31.47
2018-12-01T11:00:36.086Z,30.97
2018-12-01T11:03:04.568Z,32.03
2018-12-01T11:05:33.740Z,30.03
2018-12-01T11:08:02.234Z,30.13
2018-12-01T11:10:30.712Z,30.60
2018-12-01T11:12:59.176Z,28.70
2018-12-01T11:15:27.677Z,28.10
2018-12-01T11:17:56.128Z,33.23
2018-12-01T11:20:24.536Z,30.70
2018-12-01T11:22:57.766Z,30.53
2018-12-01T11:25:21.960Z,28.20
2018-12-01T11:27:49.861Z,32.70
2018-12-01T11:30:19.085Z,29.93
2018-12-01T11:32:47.953Z,29.90
2018-12-01T11:35:16.349Z,31.23
2018-12-01T11:37:45.217Z,28.63
2018-12-01T11:40:15.365Z,29.53
2018-12-01T11:42:43.509Z,29.90
2018-12-01T11:45:13.108Z,27.90
2018-12-01T11:47:41.485Z,28.63
2018-12-01T11:50:11.345Z,29.50
2018-12-01T11:52:39.802Z,30.40
2018-12-01T11:55:24.393Z,31.03
2018-12-01T11:57:53.641Z,28.03
2018-12-01T12:00:26.869Z,30.97
2018-12-01T12:02:55.750Z,31.17
2018-12-01T12:05:24.249Z,30.47
2018-12-01T12:08:23.993Z,32.07
2018-12-01T12:10:52.582Z,29.30
2018-12-01T12:13:22.141Z,27.23
2018-12-01T12:15:50.651Z,31.60
2018-12-01T12:18:19.069Z,30.93
2018-12-01T12:20:47.506Z,30.27
2018-12-01T12:23:16.822Z,84.97
2018-12-01T12:25:44.377Z,44.80
2018-12-01T12:28:12.761Z,30.03
2018-12-01T12:30:41.224Z,35.93
2018-12-01T12:33:09.674Z,38.13
2018-12-01T12:35:38.085Z,33.60
2018-12-01T12:38:06.549Z,31.33
2018-12-01T12:40:34.968Z,32.03
2018-12-01T12:43:03.337Z,35.03
2018-12-01T12:45:31.806Z,30.37
2018-12-01T12:48:00.260Z,30.53
2018-12-01T12:50:28.664Z,31.23
2018-12-01T12:52:57.228Z,37.57
2018-12-01T12:55:26.453Z,29.20
2018-12-01T12:57:54.912Z,31.10
2018-12-01T13:00:24.367Z,29.73
2018-12-01T13:02:55.232Z,30.63
2018-12-01T13:05:25.922Z,27.40
2018-12-01T13:07:54.293Z,31.10
2018-12-01T13:10:23.806Z,29.67
2018-12-01T13:12:52.261Z,26.60
2018-12-01T13:15:20.633Z,36.27
2018-12-01T13:17:49.036Z,26.47
2018-12-01T13:20:19.340Z,25.67
2018-12-01T13:22:48.972Z,27.20
2018-12-01T13:25:17.532Z,26.10
2018-12-01T13:27:48.146Z,27.70
2018-12-01T13:30:18.076Z,28.27
2018-12-01T13:32:46.485Z,26.43
2018-12-01T13:35:14.936Z,26.73
2018-12-01T13:37:44.084Z,27.87
2018-12-01T13:40:13.545Z,28.97
2018-12-01T13:42:42.457Z,35.43
2018-12-01T13:45:14.789Z,29.63
2018-12-01T13:47:43.245Z,32.10
2018-12-01T13:50:13.924Z,106.90
2018-12-01T13:52:43.248Z,68.53
2018-12-01T13:55:11.713Z,31.53
2018-12-01T13:57:40.217Z,29.77
2018-12-01T14:00:11.950Z,30.80
2018-12-01T14:02:40.358Z,27.77
2018-12-01T14:05:10.216Z,25.87
2018-12-01T14:07:38.631Z,26.97
2018-12-01T14:10:15.744Z,29.00
2018-12-01T14:12:45.236Z,36.33
2018-12-01T14:15:18.608Z,30.63
2018-12-01T14:17:47.536Z,29.77
2018-12-01T14:20:16.704Z,26.97
2018-12-01T14:22:46.121Z,28.03
2018-12-01T14:25:15.603Z,27.07
2018-12-01T14:27:47.383Z,27.20
2018-12-01T14:30:16.774Z,27.93
2018-12-01T14:32:45.800Z,28.30
2018-12-01T14:35:19.258Z,29.27
2018-12-01T14:37:49.412Z,28.47
2018-12-01T14:40:17.864Z,27.87
2018-12-01T14:42:46.293Z,32.57
2018-12-01T14:45:15.961Z,39.43
2018-12-01T14:47:44.348Z,29.97
2018-12-01T14:50:15.592Z,33.57
2018-12-01T14:52:44.691Z,28.77
2018-12-01T14:55:15.047Z,27.30
2018-12-01T14:57:43.532Z,28.30
2018-12-01T15:00:13.456Z,27.87
2018-12-01T15:02:41.901Z,28.73
2018-12-01T15:05:10.329Z,26.87
2018-12-01T15:07:38.778Z,28.93
2018-12-01T15:10:10.760Z,28.97
2018-12-01T15:12:39.130Z,25.20
2018-12-01T15:15:09.145Z,30.17
2018-12-01T15:17:37.589Z,29.87
2018-12-01T15:20:23.765Z,27.53
2018-12-01T15:22:53.309Z,26.37
2018-12-01T15:25:23.536Z,29.47
2018-12-01T15:27:52.000Z,29.77
2018-12-01T15:30:22.365Z,28.47
2018-12-01T15:32:54.572Z,29.60
2018-12-01T15:35:22.959Z,31.93
2018-12-01T15:37:51.453Z,25.93
2018-12-01T15:40:20.246Z,29.00
2018-12-01T15:42:48.632Z,29.17
2018-12-01T15:45:18.273Z,32.03
2018-12-01T15:47:46.717Z,31.67
2018-12-01T15:50:20.850Z,29.47
2018-12-01T15:52:51.042Z,30.23
2018-12-01T15:55:19.689Z,26.93
2018-12-01T15:57:48.223Z,27.83
2018-12-01T16:00:18.680Z,31.93
2018-12-01T16:02:47.137Z,29.80
2018-12-01T16:05:16.493Z,30.97
2018-12-01T16:07:44.951Z,29.57
2018-12-01T16:10:15.369Z,29.23
2018-12-01T16:12:44.335Z,29.10
2018-12-01T16:15:15.325Z,31.20
2018-12-01T16:17:43.692Z,30.07
2018-12-01T16:20:14.120Z,29.43
2018-12-01T16:22:42.571Z,29.93
2018-12-01T16:25:12.581Z,30.67
2018-12-01T16:27:41.189Z,34.00
2018-12-01T16:30:14.368Z,33.63
2018-12-01T16:32:42.788Z,31.67
2018-12-01T16:35:11.225Z,33.17
2018-12-01T16:37:39.625Z,31.60
2018-12-01T16:40:11.655Z,33.40
2018-12-01T16:42:40.080Z,31.30
2018-12-01T16:45:10.780Z,59.17
2018-12-01T16:47:39.292Z,35.60
2018-12-01T16:50:10.513Z,34.50
2018-12-01T16:52:39.020Z,33.97
2018-12-01T16:55:12.272Z,32.67
2018-12-01T16:57:40.699Z,35.60
2018-12-01T17:00:13.556Z,33.43
2018-12-01T17:02:42.088Z,33.70
2018-12-01T17:05:11.945Z,32.30
2018-12-01T17:07:40.348Z,31.00
2018-12-01T17:10:23.673Z,38.00
2018-12-01T17:12:54.307Z,36.30
2018-12-01T17:15:22.894Z,34.30
2018-12-01T17:17:51.299Z,34.37
2018-12-01T17:20:20.048Z,34.17
2018-12-01T17:22:52.859Z,38.70
2018-12-01T17:25:21.317Z,36.10
2018-12-01T17:27:50.782Z,36.97
2018-12-01T17:30:26.066Z,33.37
2018-12-01T17:32:55.044Z,36.43
2018-12-01T17:35:24.916Z,36.93
2018-12-01T17:37:57.468Z,31.23
2018-12-01T17:40:36.581Z,34.67
2018-12-01T17:43:06.824Z,34.10
2018-12-01T17:45:35.202Z,33.10
2018-12-01T17:48:03.981Z,32.87
2018-12-01T17:50:32.453Z,33.03
2018-12-01T17:53:00.825Z,33.50
2018-12-01T17:55:30.244Z,35.40
2018-12-01T17:57:58.717Z,29.97
2018-12-01T18:00:28.338Z,30.90
2018-12-01T18:02:59.371Z,34.60
2018-12-01T18:05:34.512Z,33.40
2018-12-01T18:08:03.284Z,34.60
2018-12-01T18:10:31.681Z,34.10
2018-12-01T18:13:00.053Z,38.30
2018-12-01T18:15:28.469Z,37.00
2018-12-01T18:17:56.847Z,31.00
2018-12-01T18:20:25.446Z,35.07
2018-12-01T18:22:57.243Z,33.40
2018-12-01T18:25:26.160Z,29.17
2018-12-01T18:27:56.067Z,29.93
2018-12-01T18:30:28.965Z,29.50
2018-12-01T18:32:59.157Z,28.70
2018-12-01T18:35:27.552Z,30.90
2018-12-01T18:37:55.937Z,29.40
2018-12-01T18:40:24.332Z,29.17
2018-12-01T18:42:52.802Z,29.27
2018-12-01T18:45:22.348Z,30.47
2018-12-01T18:47:50.741Z,28.67
2018-12-01T18:50:19.880Z,27.40
2018-12-01T18:52:59.480Z,28.43
2018-12-01T18:55:29.260Z,27.70
2018-12-01T18:57:57.715Z,27.67
2018-12-01T19:00:32.139Z,26.27
2018-12-01T19:03:00.517Z,25.90
2018-12-01T19:05:29.045Z,27.20
2018-12-01T19:07:57.414Z,25.73
2018-12-01T19:10:25.896Z,25.60
2018-12-01T19:12:54.293Z,24.60
2018-12-01T19:15:22.727Z,27.50
2018-12-01T19:17:51.116Z,26.73
2018-12-01T19:20:19.493Z,29.50
2018-12-01T19:22:49.149Z,26.90
2018-12-01T19:25:20.677Z,27.40
2018-12-01T19:27:49.664Z,25.70
2018-12-01T19:30:19.049Z,28.27
2018-12-01T19:32:52.874Z,26.30
2018-12-01T19:35:21.328Z,24.00
2018-12-01T19:37:50.865Z,25.87
2018-12-01T19:40:28.554Z,25.53
2018-12-01T19:42:54.004Z,26.60
2018-12-01T19:45:22.378Z,22.50
2018-12-01T19:47:50.772Z,25.60
2018-12-01T19:50:24.204Z,24.67
2018-12-01T19:52:52.609Z,24.53
2018-12-01T19:55:22.751Z,24.10
2018-12-01T19:57:51.877Z,22.57
2018-12-01T20:00:21.488Z,21.60
2018-12-01T20:02:50.205Z,23.60
2018-12-01T20:05:19.397Z,23.73
2018-12-01T20:07:48.422Z,22.03
2018-12-01T20:10:19.305Z,20.97
2018-12-01T20:13:53.845Z,23.63
2018-12-01T20:16:26.440Z,21.67
2018-12-01T20:18:55.040Z,23.13
2018-12-01T20:21:23.816Z,23.40
2018-12-01T20:23:52.320Z,21.63
2018-12-01T20:26:20.862Z,21.47
2018-12-01T20:28:49.388Z,22.97
2018-12-01T20:31:18.698Z,26.87
2018-12-01T20:33:47.145Z,22.97
2018-12-01T20:36:20.424Z,23.80
2018-12-01T20:38:58.464Z,22.50
2018-12-01T20:41:26.928Z,23.00
2018-12-01T20:43:55.559Z,18.73
2018-12-01T20:46:23.997Z,19.47
2018-12-01T20:48:52.781Z,22.73
2018-12-01T20:51:21.153Z,20.97
2018-12-01T20:53:50.081Z,20.10
2018-12-01T20:56:20.677Z,20.37
2018-12-01T20:58:49.093Z,17.90
2018-12-01T21:01:17.548Z,21.00
2018-12-01T21:03:45.958Z,20.73
2018-12-01T21:06:14.393Z,18.53
2018-12-01T21:08:42.783Z,19.87
2018-12-01T21:11:13.040Z,18.63
2018-12-01T21:13:41.537Z,19.00
2018-12-01T21:16:09.918Z,19.30
2018-12-01T21:18:38.351Z,20.57
2018-12-01T21:21:06.838Z,18.80
2018-12-01T21:23:35.218Z,19.20
2018-12-01T21:26:03.624Z,17.30
2018-12-01T21:28:32.013Z,20.13
2018-12-01T21:31:00.441Z,21.37
2018-12-01T21:33:31.488Z,19.20
2018-12-01T21:35:59.911Z,20.53
2018-12-01T21:38:28.280Z,19.67
2018-12-01T21:40:56.673Z,17.93
2018-12-01T21:43:25.121Z,22.43
2018-12-01T21:45:53.520Z,18.80
2018-12-01T21:48:21.982Z,21.10
2018-12-01T21:50:50.455Z,20.10
2018-12-01T21:53:23.288Z,19.47
2018-12-01T21:55:51.779Z,18.83
2018-12-01T21:58:20.229Z,19.37
2018-12-01T22:00:52.280Z,19.13
2018-12-01T22:03:21.105Z,18.30
2018-12-01T22:05:53.867Z,19.43
2018-12-01T22:08:22.235Z,18.97
2018-12-01T22:10:53.298Z,19.00
2018-12-01T22:13:22.185Z,18.50
2018-12-01T22:15:50.208Z,17.73
2018-12-01T22:18:18.820Z,14.90
2018-12-01T22:20:47.220Z,19.37
2018-12-01T22:23:15.686Z,17.43
2018-12-01T22:25:44.088Z,18.60
2018-12-01T22:28:13.461Z,17.00
2018-12-01T22:30:43.097Z,19.00
2018-12-01T22:33:15.141Z,17.10
2018-12-01T22:35:45.204Z,16.30
2018-12-01T22:38:13.752Z,18.77
2018-12-01T22:40:42.945Z,15.80
2018-12-01T22:43:11.349Z,15.97
2018-12-01T22:45:39.797Z,16.53
2018-12-01T22:48:09.858Z,16.47
2018-12-01T22:50:39.320Z,15.90
2018-12-01T22:53:07.732Z,15.60
2018-12-01T22:55:36.113Z,15.70
2018-12-01T22:58:07.663Z,13.70
2018-12-01T23:00:48.372Z,16.03
2018-12-01T23:03:16.809Z,16.50
2018-12-01T23:05:45.273Z,16.30
2018-12-01T23:08:14.890Z,16.53
2018-12-01T23:10:43.270Z,15.23
2018-12-01T23:13:11.670Z,17.20
2018-12-01T23:15:40.128Z,14.47
2018-12-01T23:18:10.064Z,14.90
2018-12-01T23:20:39.242Z,17.17
2018-12-01T23:23:08.049Z,14.93
2018-12-01T23:25:36.428Z,14.63
2018-12-01T23:28:05.024Z,15.10
2018-12-01T23:30:33.424Z,16.07
2018-12-01T23:33:05.270Z,14.57
2018-12-01T23:35:33.641Z,15.60
2018-12-01T23:38:02.058Z,15.93
2018-12-01T23:40:30.473Z,16.67
2018-12-01T23:42:58.859Z,16.13
2018-12-01T23:45:27.259Z,13.90
2018-12-01T23:47:55.717Z,15.50
2018-12-01T23:50:25.249Z,15.50
2018-12-01T23:52:55.772Z,15.20
2018-12-01T23:55:24.253Z,16.60
2018-12-01T23:57:52.712Z,15.30
